createdAt,value
2023-05-21T00:02:00.336Z,10.98
2023-05-21T00:04:29.855Z,13.05
2023-05-21T00:06:56.990Z,11.80
2023-05-21T00:09:24.459Z,11.35
2023-05-21T00:11:51.510Z,13.10
2023-05-21T00:14:18.717Z,12.75
2023-05-21T00:16:47.221Z,13.70
2023-05-21T00:19:14.543Z,13.05
2023-05-21T00:21:41.705Z,11.73
2023-05-21T00:24:08.836Z,12.15
2023-05-21T00:26:35.941Z,10.05
2023-05-21T00:29:03.384Z,9.98
2023-05-21T00:31:30.760Z,9.68
2023-05-21T00:33:58.133Z,10.55
2023-05-21T00:36:25.387Z,13.27
2023-05-21T00:38:52.838Z,10.27
2023-05-21T00:41:20.301Z,10.35
2023-05-21T00:43:47.394Z,11.40
2023-05-21T00:46:18.006Z,10.60
2023-05-21T00:48:46.610Z,11.80
2023-05-21T00:51:18.769Z,12.88
2023-05-21T00:53:46.862Z,14.23
2023-05-21T00:56:14.208Z,13.93
2023-05-21T00:58:41.917Z,14.25
2023-05-21T01:01:14.247Z,14.57
2023-05-21T01:03:41.495Z,14.43
2023-05-21T01:06:10.260Z,15.07
2023-05-21T01:08:38.592Z,14.73
2023-05-21T01:11:07.268Z,13.60
2023-05-21T01:13:38.036Z,12.80
2023-05-21T01:16:09.494Z,12.82
2023-05-21T01:18:40.251Z,14.23
2023-05-21T01:21:10.431Z,14.23
2023-05-21T01:23:37.694Z,10.77
2023-05-21T01:26:04.827Z,13.45
2023-05-21T01:28:33.164Z,12.05
2023-05-21T01:31:06.786Z,10.90
2023-05-21T01:33:41.948Z,11.13
2023-05-21T01:36:24.576Z,10.13
2023-05-21T01:39:12.828Z,13.10
2023-05-21T01:41:45.167Z,10.93
2023-05-21T01:44:13.758Z,9.38
2023-05-21T01:46:41.213Z,10.27
2023-05-21T01:49:08.814Z,12.90
2023-05-21T01:51:36.658Z,10.77
2023-05-21T01:54:03.860Z,13.73
2023-05-21T01:56:34.077Z,13.75
2023-05-21T01:59:01.245Z,10.32
2023-05-21T02:01:30.505Z,11.98
2023-05-21T02:03:58.450Z,12.25
2023-05-21T02:06:25.599Z,13.50
2023-05-21T02:08:52.714Z,13.27
2023-05-21T02:11:19.800Z,13.50
2023-05-21T02:13:46.932Z,12.10
2023-05-21T02:16:16.104Z,14.90
2023-05-21T02:18:44.048Z,14.10
2023-05-21T02:21:11.661Z,12.95
2023-05-21T02:23:38.848Z,14.23
2023-05-21T02:26:06.159Z,13.75
2023-05-21T02:28:33.739Z,13.25
2023-05-21T02:31:01.333Z,12.68
2023-05-21T02:33:28.437Z,15.38
2023-05-21T02:35:55.453Z,12.93
2023-05-21T02:38:23.422Z,11.98
2023-05-21T02:40:53.512Z,13.25
2023-05-21T02:43:20.728Z,12.85
2023-05-21T02:45:48.094Z,14.02
2023-05-21T02:48:15.346Z,12.23
2023-05-21T02:50:42.440Z,14.45
2023-05-21T02:53:09.500Z,15.10
2023-05-21T02:55:36.790Z,16.80
2023-05-21T02:58:04.082Z,14.40
2023-05-21T03:00:31.344Z,13.60
2023-05-21T03:02:58.509Z,11.95
2023-05-21T03:05:26.012Z,15.57
2023-05-21T03:07:53.535Z,11.95
2023-05-21T03:10:20.850Z,18.27
2023-05-21T03:12:47.893Z,14.20
2023-05-21T03:15:15.085Z,15.55
2023-05-21T03:17:42.543Z,14.65
2023-05-21T03:20:16.253Z,19.52
2023-05-21T03:22:44.890Z,16.13
2023-05-21T03:25:12.989Z,15.13
2023-05-21T03:27:40.590Z,15.27
2023-05-21T03:30:08.227Z,15.50
2023-05-21T03:32:38.069Z,15.52
2023-05-21T03:35:06.062Z,14.20
2023-05-21T03:37:33.107Z,15.73
2023-05-21T03:40:00.260Z,14.57
2023-05-21T03:42:27.392Z,14.70
2023-05-21T03:44:54.651Z,12.93
2023-05-21T03:47:21.794Z,12.20
2023-05-21T03:49:48.921Z,17.13
2023-05-21T03:52:16.040Z,13.68
2023-05-21T03:54:43.136Z,14.73
2023-05-21T03:57:10.215Z,13.13
2023-05-21T03:59:37.357Z,11.68
2023-05-21T04:02:04.912Z,10.98
2023-05-21T04:04:33.965Z,11.07
2023-05-21T04:07:01.173Z,12.43
2023-05-21T04:09:28.296Z,10.75
2023-05-21T04:11:55.512Z,9.82
2023-05-21T04:14:25.656Z,11.25
2023-05-21T04:16:52.756Z,11.07
2023-05-21T04:19:20.382Z,11.10
2023-05-21T04:21:47.744Z,10.32
2023-05-21T04:24:14.853Z,8.73
2023-05-21T04:26:42.572Z,9.35
2023-05-21T04:29:10.137Z,7.85
2023-05-21T04:31:37.466Z,7.43
2023-05-21T04:34:05.184Z,9.57
2023-05-21T04:36:33.967Z,8.00
2023-05-21T04:39:01.420Z,8.40
2023-05-21T04:41:28.715Z,10.18
2023-05-21T04:43:55.784Z,16.15
2023-05-21T04:46:25.824Z,12.27
2023-05-21T04:48:55.349Z,10.90
2023-05-21T04:51:24.971Z,15.70
2023-05-21T04:53:52.211Z,11.85
2023-05-21T04:56:19.239Z,12.48
2023-05-21T04:58:48.101Z,10.18
2023-05-21T05:01:19.536Z,10.15
2023-05-21T05:03:46.716Z,12.48
2023-05-21T05:06:13.827Z,15.13
2023-05-21T05:08:40.942Z,14.10
2023-05-21T05:11:08.074Z,14.48
2023-05-21T05:13:35.486Z,15.70
2023-05-21T05:16:02.695Z,18.13
2023-05-21T05:18:30.212Z,13.73
2023-05-21T05:20:57.287Z,14.68
2023-05-21T05:23:24.337Z,15.32
2023-05-21T05:25:51.752Z,16.92
2023-05-21T05:28:18.826Z,17.52
2023-05-21T05:30:45.956Z,18.70
2023-05-21T05:33:13.806Z,17.73
2023-05-21T05:35:40.892Z,18.40
2023-05-21T05:38:09.249Z,16.58
2023-05-21T05:40:36.471Z,16.52
2023-05-21T05:43:03.617Z,16.88
2023-05-21T05:45:30.693Z,19.55
2023-05-21T05:47:57.829Z,23.55
2023-05-21T05:50:24.879Z,17.98
2023-05-21T05:52:51.955Z,18.52
2023-05-21T05:55:19.014Z,19.75
2023-05-21T05:57:46.262Z,19.58
2023-05-21T06:00:13.930Z,17.10
2023-05-21T06:02:41.245Z,16.77
2023-05-21T06:05:10.040Z,19.85
2023-05-21T06:07:41.111Z,15.35
2023-05-21T06:10:08.945Z,16.92
2023-05-21T06:12:36.095Z,18.65
2023-05-21T06:15:03.253Z,16.92
2023-05-21T06:17:30.408Z,18.20
2023-05-21T06:19:57.595Z,19.30
2023-05-21T06:22:25.705Z,23.45
2023-05-21T06:24:53.062Z,18.30
2023-05-21T06:27:20.093Z,20.42
2023-05-21T06:29:47.281Z,16.73
2023-05-21T06:32:14.324Z,16.40
2023-05-21T06:34:41.371Z,20.80
2023-05-21T06:37:08.489Z,19.65
2023-05-21T06:39:35.616Z,20.42
2023-05-21T06:42:02.710Z,19.05
2023-05-21T06:44:29.830Z,17.77
2023-05-21T06:46:56.922Z,22.10
2023-05-21T06:49:24.143Z,21.45
2023-05-21T06:51:51.268Z,23.25
2023-05-21T06:54:18.484Z,21.80
2023-05-21T06:56:45.586Z,22.75
2023-05-21T06:59:12.716Z,21.38
2023-05-21T07:01:42.815Z,20.48
2023-05-21T07:04:10.604Z,20.33
2023-05-21T07:06:41.046Z,20.45
2023-05-21T07:09:08.999Z,22.45
2023-05-21T07:11:36.218Z,21.33
2023-05-21T07:14:06.967Z,21.67
2023-05-21T07:16:34.032Z,19.63
2023-05-21T07:19:01.186Z,21.00
2023-05-21T07:21:28.290Z,18.75
2023-05-21T07:23:55.396Z,20.83
2023-05-21T07:26:22.579Z,23.23
2023-05-21T07:28:49.718Z,18.63
2023-05-21T07:31:16.965Z,22.58
2023-05-21T07:33:44.118Z,24.13
2023-05-21T07:36:11.220Z,21.13
2023-05-21T07:38:40.324Z,19.77
2023-05-21T07:41:07.447Z,22.13
2023-05-21T07:43:34.580Z,20.70
2023-05-21T07:46:01.770Z,21.92
2023-05-21T07:48:28.921Z,19.08
2023-05-21T07:50:56.783Z,21.00
2023-05-21T07:53:24.032Z,17.88
2023-05-21T07:55:51.505Z,24.65
2023-05-21T07:58:20.305Z,19.75
2023-05-21T08:00:48.003Z,20.20
2023-05-21T08:03:18.537Z,19.25
2023-05-21T08:05:49.619Z,21.23
2023-05-21T08:08:20.368Z,20.05
2023-05-21T08:10:48.126Z,17.48
2023-05-21T08:13:17.126Z,19.00
2023-05-21T08:15:44.398Z,24.65
2023-05-21T08:18:12.109Z,17.70
2023-05-21T08:20:39.412Z,21.83
2023-05-21T08:23:06.663Z,20.23
2023-05-21T08:25:33.884Z,18.63
2023-05-21T08:28:01.042Z,18.25
2023-05-21T08:30:28.226Z,18.65
2023-05-21T08:32:55.511Z,17.42
2023-05-21T08:35:22.819Z,19.10
2023-05-21T08:37:50.074Z,16.80
2023-05-21T08:40:17.560Z,18.65
2023-05-21T08:42:51.800Z,14.60
2023-05-21T08:45:23.844Z,19.13
2023-05-21T08:47:59.925Z,18.63
2023-05-21T08:50:28.422Z,17.50
2023-05-21T08:52:55.743Z,19.10
2023-05-21T08:55:23.829Z,16.75
2023-05-21T08:57:53.796Z,15.80
2023-05-21T09:00:21.393Z,20.45
2023-05-21T09:02:48.601Z,17.90
2023-05-21T09:05:16.862Z,17.10
2023-05-21T09:08:02.062Z,14.43
2023-05-21T09:10:38.492Z,18.08
2023-05-21T09:13:08.085Z,16.50
2023-05-21T09:15:35.519Z,17.15
2023-05-21T09:18:02.844Z,16.27
2023-05-21T09:20:30.048Z,14.48
2023-05-21T09:22:57.158Z,17.05
2023-05-21T09:25:28.442Z,16.17
2023-05-21T09:27:59.310Z,15.05
2023-05-21T09:30:29.728Z,15.88
2023-05-21T09:32:59.774Z,16.40
2023-05-21T09:35:27.216Z,18.10
2023-05-21T09:37:54.432Z,12.98
2023-05-21T09:40:23.576Z,18.30
2023-05-21T09:42:52.999Z,16.15
2023-05-21T09:45:25.220Z,13.45
2023-05-21T09:47:53.975Z,19.35
2023-05-21T09:50:28.012Z,15.45
2023-05-21T09:52:56.376Z,14.50
2023-05-21T09:55:24.748Z,15.85
2023-05-21T09:57:52.921Z,14.60
2023-05-21T10:00:21.409Z,13.95
2023-05-21T10:02:50.662Z,13.65
2023-05-21T10:05:18.104Z,14.32
2023-05-21T10:07:51.558Z,14.25
2023-05-21T10:10:21.588Z,15.50
2023-05-21T10:13:07.072Z,15.70
2023-05-21T10:15:41.657Z,12.55
2023-05-21T10:18:12.274Z,12.10
2023-05-21T10:20:39.864Z,12.27
2023-05-21T10:23:07.641Z,15.43
2023-05-21T10:25:36.414Z,14.00
2023-05-21T10:28:03.783Z,18.08
2023-05-21T10:30:31.569Z,12.82
2023-05-21T10:32:59.976Z,15.35
2023-05-21T10:35:28.877Z,14.82
2023-05-21T10:37:58.581Z,13.38
2023-05-21T10:40:25.787Z,12.88
2023-05-21T10:43:31.189Z,14.05
2023-05-21T10:46:22.832Z,13.15
2023-05-21T10:49:07.790Z,14.75
2023-05-21T10:51:40.027Z,12.68
2023-05-21T10:54:30.716Z,13.73
2023-05-21T10:57:19.164Z,14.25
2023-05-21T10:59:47.704Z,12.98
2023-05-21T11:02:16.315Z,10.48
2023-05-21T11:04:49.410Z,12.13
2023-05-21T11:07:24.763Z,13.52
2023-05-21T11:09:51.990Z,11.88
2023-05-21T11:12:23.408Z,11.35
2023-05-21T11:14:58.187Z,10.73
2023-05-21T11:17:43.364Z,11.82
2023-05-21T11:20:16.900Z,15.27
2023-05-21T11:22:46.980Z,11.20
2023-05-21T11:25:15.724Z,10.43
2023-05-21T11:27:42.898Z,12.77
2023-05-21T11:30:30.121Z,12.65
2023-05-21T11:33:10.984Z,12.18
2023-05-21T11:35:50.064Z,13.65
2023-05-21T11:38:18.401Z,11.13
2023-05-21T11:40:56.587Z,12.23
2023-05-21T11:43:23.701Z,17.23
2023-05-21T11:45:53.278Z,11.27
2023-05-21T11:48:27.296Z,12.43
2023-05-21T11:50:55.013Z,11.27
2023-05-21T11:53:22.229Z,11.57
2023-05-21T11:55:57.725Z,10.48
2023-05-21T11:58:25.037Z,11.38
2023-05-21T12:00:52.226Z,12.55
2023-05-21T12:03:20.106Z,11.73
2023-05-21T12:05:48.255Z,11.68
2023-05-21T12:08:28.526Z,10.20
2023-05-21T12:11:00.227Z,10.27
2023-05-21T12:13:28.290Z,13.15
2023-05-21T12:15:55.609Z,11.48
2023-05-21T12:18:23.005Z,12.68
2023-05-21T12:20:52.335Z,12.27
2023-05-21T12:23:26.474Z,12.63
2023-05-21T12:25:54.196Z,12.80
2023-05-21T12:28:22.344Z,11.90
2023-05-21T12:30:49.527Z,13.25
2023-05-21T12:33:18.194Z,10.75
2023-05-21T12:35:50.359Z,11.55
2023-05-21T12:38:17.677Z,10.32
2023-05-21T12:40:45.964Z,13.73
2023-05-21T12:43:13.352Z,9.85
2023-05-21T12:45:40.984Z,12.13
2023-05-21T12:48:08.479Z,11.77
2023-05-21T12:50:40.832Z,13.95
2023-05-21T12:53:11.276Z,11.32
2023-05-21T12:55:38.865Z,10.07
2023-05-21T12:58:09.002Z,10.95
2023-05-21T13:00:37.115Z,12.48
2023-05-21T13:03:06.721Z,11.93
2023-05-21T13:05:34.421Z,11.15
2023-05-21T13:08:01.816Z,12.30
2023-05-21T13:10:28.886Z,11.20
2023-05-21T13:12:56.039Z,11.55
2023-05-21T13:15:23.185Z,13.57
2023-05-21T13:17:51.150Z,10.10
2023-05-21T13:20:21.991Z,13.48
2023-05-21T13:22:54.233Z,9.80
2023-05-21T13:25:29.582Z,9.23
2023-05-21T13:27:57.778Z,7.93
2023-05-21T13:30:24.944Z,10.38
2023-05-21T13:32:52.498Z,11.02
2023-05-21T13:35:20.023Z,10.02
2023-05-21T13:37:47.283Z,10.82
2023-05-21T13:40:16.334Z,9.27
2023-05-21T13:42:48.620Z,9.23
2023-05-21T13:45:18.121Z,8.48
2023-05-21T13:47:47.020Z,9.18
2023-05-21T13:50:14.554Z,9.93
2023-05-21T13:52:42.199Z,9.85
2023-05-21T13:55:10.158Z,11.60
2023-05-21T13:57:40.398Z,8.32
2023-05-21T14:00:09.446Z,8.00
2023-05-21T14:02:36.757Z,8.05
2023-05-21T14:05:04.009Z,13.02
2023-05-21T14:07:31.146Z,8.52
2023-05-21T14:09:58.434Z,8.05
2023-05-21T14:12:26.804Z,8.57
2023-05-21T14:14:53.934Z,11.27
2023-05-21T14:17:21.272Z,9.98
2023-05-21T14:19:48.449Z,8.32
2023-05-21T14:22:15.625Z,7.28
2023-05-21T14:24:42.741Z,12.45
2023-05-21T14:27:09.898Z,9.68
2023-05-21T14:29:36.985Z,7.57
2023-05-21T14:32:04.234Z,10.63
2023-05-21T14:34:31.377Z,9.57
2023-05-21T14:36:58.632Z,7.57
2023-05-21T14:39:25.845Z,10.13
2023-05-21T14:41:53.979Z,12.45
2023-05-21T14:44:21.255Z,10.70
2023-05-21T14:46:48.397Z,11.93
2023-05-21T14:49:15.747Z,8.50
2023-05-21T14:51:43.884Z,7.20
2023-05-21T14:54:11.098Z,10.73
2023-05-21T14:56:38.219Z,9.90
2023-05-21T14:59:05.492Z,8.25
2023-05-21T15:01:32.769Z,11.65
2023-05-21T15:04:00.169Z,7.85
2023-05-21T15:06:28.004Z,11.02
2023-05-21T15:08:55.171Z,10.50
2023-05-21T15:11:22.582Z,8.75
2023-05-21T15:13:49.765Z,9.07
2023-05-21T15:16:18.872Z,8.40
2023-05-21T15:18:47.042Z,8.93
2023-05-21T15:21:14.210Z,10.25
2023-05-21T15:23:41.999Z,7.50
2023-05-21T15:26:09.431Z,7.40
2023-05-21T15:28:36.593Z,8.35
2023-05-21T15:31:04.082Z,8.10
2023-05-21T15:33:31.325Z,9.52
2023-05-21T15:35:58.547Z,10.27
2023-05-21T15:38:25.895Z,9.05
2023-05-21T15:40:53.130Z,11.18
2023-05-21T15:43:20.316Z,9.65
2023-05-21T15:45:47.518Z,7.82
2023-05-21T15:48:15.024Z,10.85
2023-05-21T15:50:42.258Z,11.05
2023-05-21T15:53:11.317Z,11.07
2023-05-21T15:55:38.838Z,8.65
2023-05-21T15:58:07.028Z,9.68
2023-05-21T16:00:34.733Z,8.80
2023-05-21T16:03:02.383Z,12.07
2023-05-21T16:05:29.865Z,7.80
2023-05-21T16:07:57.065Z,10.98
2023-05-21T16:10:25.166Z,9.75
2023-05-21T16:12:52.328Z,8.07
2023-05-21T16:15:19.520Z,9.98
2023-05-21T16:17:46.897Z,9.50
2023-05-21T16:20:14.259Z,14.15
2023-05-21T16:22:41.923Z,8.15
2023-05-21T16:25:09.502Z,10.25
2023-05-21T16:27:36.720Z,9.27
2023-05-21T16:30:04.413Z,9.80
2023-05-21T16:32:31.666Z,9.27
2023-05-21T16:34:58.946Z,9.45
2023-05-21T16:37:27.032Z,9.63
2023-05-21T16:39:54.214Z,8.70
2023-05-21T16:42:25.576Z,10.35
2023-05-21T16:44:57.257Z,9.32
2023-05-21T16:47:26.506Z,8.35
2023-05-21T16:49:57.373Z,10.50
2023-05-21T16:52:25.203Z,10.00
2023-05-21T16:54:53.101Z,11.95
2023-05-21T16:57:21.719Z,10.02
2023-05-21T16:59:49.896Z,8.80
2023-05-21T17:02:19.407Z,9.43
2023-05-21T17:04:49.249Z,9.00
2023-05-21T17:07:19.000Z,9.10
2023-05-21T17:09:46.280Z,9.13
2023-05-21T17:12:13.633Z,7.30
2023-05-21T17:14:40.868Z,8.43
2023-05-21T17:17:08.102Z,8.30
2023-05-21T17:19:35.532Z,10.52
2023-05-21T17:22:02.887Z,11.18
2023-05-21T17:24:30.122Z,8.30
2023-05-21T17:26:57.335Z,8.20
2023-05-21T17:29:24.568Z,10.98
2023-05-21T17:31:51.778Z,8.32
2023-05-21T17:34:19.220Z,9.85
2023-05-21T17:36:46.464Z,7.07
2023-05-21T17:39:13.720Z,8.82
2023-05-21T17:41:40.999Z,9.00
2023-05-21T17:44:08.174Z,8.95
2023-05-21T17:46:35.312Z,8.30
2023-05-21T17:49:02.906Z,11.15
2023-05-21T17:51:30.112Z,10.45
2023-05-21T17:53:57.350Z,9.65
2023-05-21T17:56:24.721Z,8.38
2023-05-21T17:58:51.930Z,10.00
2023-05-21T18:01:20.441Z,10.05
2023-05-21T18:03:47.900Z,10.02
2023-05-21T18:06:16.001Z,8.88
2023-05-21T18:08:43.205Z,10.30
2023-05-21T18:11:10.516Z,11.13
2023-05-21T18:13:37.724Z,11.52
2023-05-21T18:16:05.297Z,10.35
2023-05-21T18:18:32.725Z,9.60
2023-05-21T18:21:00.065Z,9.20
2023-05-21T18:23:28.595Z,9.40
2023-05-21T18:25:56.468Z,10.57
2023-05-21T18:28:23.664Z,14.43
2023-05-21T18:30:50.903Z,11.75
2023-05-21T18:33:18.128Z,9.95
2023-05-21T18:35:45.470Z,10.05
2023-05-21T18:38:13.264Z,11.48
2023-05-21T18:40:40.492Z,10.93
2023-05-21T18:43:07.668Z,10.18
2023-05-21T18:45:35.008Z,12.07
2023-05-21T18:48:03.307Z,10.20
2023-05-21T18:50:31.971Z,10.57
2023-05-21T18:52:59.450Z,7.65
2023-05-21T18:55:26.807Z,11.38
2023-05-21T18:57:55.861Z,8.70
2023-05-21T19:00:23.343Z,8.70
2023-05-21T19:02:50.689Z,10.75
2023-05-21T19:05:18.069Z,9.02
2023-05-21T19:07:45.528Z,11.32
2023-05-21T19:10:12.918Z,11.27
2023-05-21T19:12:42.109Z,11.40
2023-05-21T19:15:10.256Z,8.85
2023-05-21T19:17:39.249Z,9.77
2023-05-21T19:20:08.576Z,9.10
2023-05-21T19:22:37.360Z,8.50
2023-05-21T19:25:04.989Z,9.75
2023-05-21T19:27:32.299Z,11.88
2023-05-21T19:29:59.548Z,9.50
2023-05-21T19:32:26.827Z,13.95
2023-05-21T19:34:54.079Z,11.82
2023-05-21T19:37:21.240Z,10.18
2023-05-21T19:39:50.420Z,11.05
2023-05-21T19:42:19.992Z,8.75
2023-05-21T19:44:47.272Z,10.27
2023-05-21T19:47:14.571Z,11.65
2023-05-21T19:49:41.903Z,10.45
2023-05-21T19:52:10.601Z,10.90
2023-05-21T19:54:37.697Z,10.38
2023-05-21T19:57:05.239Z,8.13
2023-05-21T19:59:32.562Z,7.80
2023-05-21T20:01:59.842Z,9.75
2023-05-21T20:04:27.542Z,8.02
2023-05-21T20:06:54.770Z,8.80
2023-05-21T20:09:21.903Z,11.10
2023-05-21T20:11:49.087Z,10.25
2023-05-21T20:14:16.468Z,9.63
2023-05-21T20:16:47.333Z,9.40
2023-05-21T20:19:15.468Z,13.63
2023-05-21T20:21:42.986Z,10.02
2023-05-21T20:24:11.534Z,11.77
2023-05-21T20:26:40.125Z,9.82
2023-05-21T20:29:08.215Z,9.20
2023-05-21T20:31:36.165Z,9.52
2023-05-21T20:34:09.334Z,9.30
2023-05-21T20:36:37.294Z,13.02
2023-05-21T20:39:05.275Z,10.90
2023-05-21T20:41:36.332Z,10.27
2023-05-21T20:44:05.442Z,11.32
2023-05-21T20:46:41.368Z,11.30
2023-05-21T20:49:09.973Z,10.77
2023-05-21T20:51:37.239Z,9.43
2023-05-21T20:54:04.517Z,15.02
2023-05-21T20:56:41.458Z,10.63
2023-05-21T20:59:11.120Z,10.65
2023-05-21T21:01:39.452Z,10.40
2023-05-21T21:04:06.730Z,14.57
2023-05-21T21:06:35.049Z,9.80
2023-05-21T21:09:02.257Z,10.10
2023-05-21T21:11:29.409Z,11.85
2023-05-21T21:13:56.768Z,12.50
2023-05-21T21:16:23.945Z,10.38
2023-05-21T21:18:51.340Z,10.77
2023-05-21T21:21:18.538Z,11.15
2023-05-21T21:23:45.768Z,10.55
2023-05-21T21:26:12.914Z,10.95
2023-05-21T21:28:40.184Z,11.60
2023-05-21T21:31:07.540Z,14.43
2023-05-21T21:33:34.704Z,11.02
2023-05-21T21:36:02.003Z,13.80
2023-05-21T21:38:29.164Z,13.10
2023-05-21T21:40:56.731Z,13.18
2023-05-21T21:43:23.891Z,11.13
2023-05-21T21:45:51.523Z,13.30
2023-05-21T21:48:18.708Z,13.93
2023-05-21T21:50:46.220Z,14.50
2023-05-21T21:53:14.264Z,14.98
2023-05-21T21:55:41.345Z,12.20
2023-05-21T21:58:08.536Z,14.45
2023-05-21T22:00:35.711Z,13.88
2023-05-21T22:03:03.119Z,12.98
2023-05-21T22:05:31.569Z,10.73
2023-05-21T22:07:58.765Z,14.38
2023-05-21T22:10:26.033Z,14.50
2023-05-21T22:12:53.163Z,14.18
2023-05-21T22:15:28.805Z,13.60
2023-05-21T22:17:56.412Z,16.17
2023-05-21T22:20:23.618Z,13.40
2023-05-21T22:22:51.674Z,16.95
2023-05-21T22:25:19.571Z,15.32
2023-05-21T22:27:46.708Z,13.60
2023-05-21T22:30:14.137Z,14.13
2023-05-21T22:32:41.330Z,13.73
2023-05-21T22:35:09.388Z,13.45
2023-05-21T22:37:37.579Z,15.27
2023-05-21T22:40:09.649Z,15.48
2023-05-21T22:42:37.221Z,13.23
2023-05-21T22:45:05.225Z,14.27
2023-05-21T22:47:32.569Z,15.30
2023-05-21T22:50:00.872Z,14.50
2023-05-21T22:52:29.167Z,12.20
2023-05-21T22:54:58.206Z,11.93
2023-05-21T22:57:25.369Z,12.18
2023-05-21T22:59:52.583Z,13.35
2023-05-21T23:02:19.897Z,11.07
2023-05-21T23:04:48.610Z,14.95
2023-05-21T23:07:16.356Z,12.85
2023-05-21T23:09:43.547Z,13.45
2023-05-21T23:12:11.320Z,12.45
2023-05-21T23:14:38.508Z,15.65
2023-05-21T23:17:05.827Z,14.05
2023-05-21T23:19:33.179Z,16.23
2023-05-21T23:22:00.707Z,15.65
2023-05-21T23:24:29.757Z,15.73
2023-05-21T23:27:02.266Z,16.77
2023-05-21T23:29:32.457Z,19.00
2023-05-21T23:32:01.338Z,18.30
2023-05-21T23:34:28.701Z,17.70
2023-05-21T23:36:57.021Z,15.45
2023-05-21T23:39:28.971Z,14.45
2023-05-21T23:41:56.171Z,15.65
2023-05-21T23:44:23.382Z,14.82
2023-05-21T23:46:50.557Z,15.60
2023-05-21T23:49:17.686Z,13.88
2023-05-21T23:51:44.952Z,13.30
2023-05-21T23:54:12.175Z,12.65
2023-05-21T23:56:39.326Z,14.48
2023-05-21T23:59:06.559Z,13.50
